Terminal Aerodrome Forecast
Issued by NWS Grand Forks, ND

Home | Current Version | Previous Version | Graphics & Text | Print | Product List | Glossary On
Versions: 1 2 3 4 5 6 7 8 9 10 11 12 13 14 15 16 17
121
FTUS43 KFGF 231727
TAFFAR
TAF
KFAR 231727Z 2318/2418 12013KT P6SM BKN200
     FM231900 12014KT P6SM VCSH OVC035
     FM232100 12014KT P6SM -SHRA OVC025
     FM240100 12013KT P6SM VCSH OVC015
     FM240300 12014KT P6SM OVC015
     FM241500 14015G22KT P6SM BKN008
     FM241700 15016G22KT P6SM BKN025=

USA.gov is the U.S. government's official web portal to all federal, state and local government web resources and services.